createdAt,value
2017-12-31T00:01:33.787Z,1.10
2017-12-31T00:04:02.070Z,1.17
2017-12-31T00:06:29.588Z,0.97
2017-12-31T00:08:57.122Z,1.40
2017-12-31T00:11:25.378Z,0.80
2017-12-31T00:13:52.887Z,0.70
2017-12-31T00:16:20.383Z,1.37
2017-12-31T00:18:47.883Z,0.60
2017-12-31T00:21:15.366Z,0.77
2017-12-31T00:23:42.875Z,0.80
2017-12-31T00:26:10.359Z,0.80
2017-12-31T00:28:37.862Z,0.53
2017-12-31T00:31:05.348Z,1.20
2017-12-31T00:33:32.854Z,1.20
2017-12-31T00:36:00.336Z,1.00
2017-12-31T00:38:27.868Z,0.80
2017-12-31T00:40:55.355Z,0.70
2017-12-31T00:43:23.603Z,0.77
2017-12-31T00:45:51.123Z,0.50
2017-12-31T00:48:18.603Z,0.73
2017-12-31T00:50:46.103Z,0.33
2017-12-31T00:53:13.588Z,0.43
2017-12-31T00:55:41.089Z,0.90
2017-12-31T00:58:09.343Z,0.67
2017-12-31T01:00:36.840Z,0.67
2017-12-31T01:03:04.337Z,0.47
2017-12-31T01:05:31.835Z,0.60
2017-12-31T01:07:59.318Z,0.40
2017-12-31T01:10:26.823Z,0.40
2017-12-31T01:12:55.075Z,0.70
2017-12-31T01:15:22.574Z,0.43
2017-12-31T01:17:50.050Z,0.50
2017-12-31T01:20:18.310Z,0.30
2017-12-31T01:22:45.790Z,0.30
2017-12-31T01:25:13.286Z,0.43
2017-12-31T01:27:41.530Z,0.33
2017-12-31T01:30:09.035Z,0.50
2017-12-31T01:32:37.270Z,0.40
2017-12-31T01:35:04.795Z,0.50
2017-12-31T01:37:33.043Z,0.60
2017-12-31T01:40:00.527Z,0.50
2017-12-31T01:42:28.036Z,0.63
2017-12-31T01:44:55.522Z,0.70
2017-12-31T01:47:23.027Z,1.20
2017-12-31T01:49:50.507Z,1.03
2017-12-31T01:52:18.037Z,0.87
2017-12-31T01:54:45.518Z,1.10
2017-12-31T01:57:13.018Z,1.30
2017-12-31T01:59:40.499Z,1.80
2017-12-31T02:02:08.002Z,1.30
2017-12-31T02:04:35.485Z,1.77
2017-12-31T02:07:03.009Z,2.07
2017-12-31T02:09:30.482Z,1.93
2017-12-31T02:11:57.980Z,1.97
2017-12-31T02:14:25.459Z,2.27
2017-12-31T02:16:52.956Z,1.30
2017-12-31T02:19:20.432Z,1.60
2017-12-31T02:21:47.926Z,1.60
2017-12-31T02:24:15.403Z,1.73
2017-12-31T02:26:42.902Z,2.70
2017-12-31T02:29:10.374Z,2.40
2017-12-31T02:31:37.876Z,2.20
2017-12-31T02:34:05.355Z,2.60
2017-12-31T02:36:32.834Z,3.03
2017-12-31T02:39:00.331Z,2.57
2017-12-31T02:41:28.589Z,3.37
2017-12-31T02:43:56.104Z,3.13
2017-12-31T02:46:23.583Z,3.27
2017-12-31T02:48:51.088Z,2.90
2017-12-31T02:51:18.583Z,3.00
2017-12-31T02:53:46.091Z,3.30
2017-12-31T02:56:13.571Z,3.30
2017-12-31T02:58:41.074Z,2.70
2017-12-31T03:01:08.555Z,3.23
2017-12-31T03:03:36.055Z,3.70
2017-12-31T03:06:04.304Z,3.30
2017-12-31T03:08:31.811Z,2.50
2017-12-31T03:11:00.055Z,2.43
2017-12-31T03:13:27.559Z,2.80
2017-12-31T03:15:55.853Z,2.30
2017-12-31T03:18:23.347Z,2.60
2017-12-31T03:20:50.828Z,2.50
2017-12-31T03:23:18.327Z,2.20
2017-12-31T03:25:45.810Z,2.40
2017-12-31T03:28:13.316Z,2.20
2017-12-31T03:30:41.555Z,1.90
2017-12-31T03:33:09.034Z,1.57
2017-12-31T03:35:36.535Z,1.70
2017-12-31T03:38:04.787Z,1.37
2017-12-31T03:40:32.289Z,1.43
2017-12-31T03:43:00.549Z,1.83
2017-12-31T03:45:28.042Z,1.90
2017-12-31T03:47:56.291Z,1.00
2017-12-31T03:50:23.795Z,1.43
2017-12-31T03:52:51.275Z,1.03
2017-12-31T03:55:19.538Z,1.03
2017-12-31T03:57:47.018Z,0.77
2017-12-31T04:00:14.518Z,0.97
2017-12-31T04:02:42.764Z,1.20
2017-12-31T04:05:10.258Z,1.00
2017-12-31T04:07:38.499Z,0.80
2017-12-31T04:10:05.995Z,0.50
2017-12-31T04:12:33.475Z,0.90
2017-12-31T04:15:00.975Z,1.40
2017-12-31T04:17:28.474Z,1.20
2017-12-31T04:19:56.738Z,1.10
2017-12-31T04:22:24.216Z,1.40
2017-12-31T04:24:51.722Z,1.60
2017-12-31T04:27:19.199Z,1.53
2017-12-31T04:29:46.699Z,1.20
2017-12-31T04:32:14.947Z,1.20
2017-12-31T04:34:42.447Z,1.60
2017-12-31T04:37:09.928Z,1.67
2017-12-31T04:39:38.198Z,1.80
2017-12-31T04:42:05.708Z,2.07
2017-12-31T04:44:33.186Z,1.70
2017-12-31T04:47:00.683Z,1.90
2017-12-31T04:49:28.162Z,2.10
2017-12-31T04:51:55.660Z,2.20
2017-12-31T04:54:23.908Z,2.40
2017-12-31T04:56:51.413Z,2.90
2017-12-31T04:59:18.888Z,2.33
2017-12-31T05:01:47.155Z,2.73
2017-12-31T05:04:14.639Z,2.37
2017-12-31T05:06:42.135Z,2.70
2017-12-31T05:09:09.623Z,3.00
2017-12-31T05:11:37.128Z,2.83
2017-12-31T05:14:04.604Z,2.80
2017-12-31T05:16:32.098Z,3.60
2017-12-31T05:19:00.348Z,3.97
2017-12-31T05:21:27.842Z,2.77
2017-12-31T05:23:55.323Z,3.00
2017-12-31T05:26:23.590Z,3.10
2017-12-31T05:28:51.077Z,2.70
2017-12-31T05:31:19.339Z,2.97
2017-12-31T05:33:46.831Z,3.20
2017-12-31T05:36:14.336Z,3.00
2017-12-31T05:38:41.810Z,3.10
2017-12-31T05:41:09.312Z,2.60
2017-12-31T05:43:36.795Z,2.57
2017-12-31T05:46:04.290Z,2.60
2017-12-31T05:48:32.538Z,2.63
2017-12-31T05:51:00.044Z,3.67
2017-12-31T05:53:28.294Z,3.40
2017-12-31T05:55:55.796Z,2.30
2017-12-31T05:58:24.043Z,3.20
2017-12-31T06:00:51.538Z,2.43
2017-12-31T06:03:19.017Z,2.47
2017-12-31T06:05:46.520Z,2.30
2017-12-31T06:08:14.003Z,2.30
2017-12-31T06:10:41.499Z,2.27
2017-12-31T06:13:08.976Z,2.50
2017-12-31T06:15:36.475Z,2.30
2017-12-31T06:18:03.955Z,2.77
2017-12-31T06:20:32.209Z,2.73
2017-12-31T06:22:59.694Z,3.10
2017-12-31T06:25:27.205Z,2.60
2017-12-31T06:27:54.678Z,2.23
2017-12-31T06:30:22.172Z,2.60
2017-12-31T06:32:49.651Z,2.20
2017-12-31T06:35:17.138Z,1.87
2017-12-31T06:37:44.620Z,2.47
2017-12-31T06:40:12.095Z,1.93
2017-12-31T06:42:40.365Z,2.37
2017-12-31T06:45:07.839Z,1.50
2017-12-31T06:47:35.348Z,1.90
2017-12-31T06:50:02.835Z,1.33
2017-12-31T06:52:30.342Z,2.57
2017-12-31T06:54:57.823Z,2.17
2017-12-31T06:57:25.324Z,1.93
2017-12-31T06:59:52.802Z,1.50
2017-12-31T07:02:20.302Z,1.60
2017-12-31T07:04:47.780Z,2.10
2017-12-31T07:07:15.275Z,1.60
2017-12-31T07:09:42.751Z,1.00
2017-12-31T07:12:11.022Z,1.10
2017-12-31T07:14:38.498Z,1.60
2017-12-31T07:17:05.997Z,1.67
2017-12-31T07:19:34.239Z,1.80
2017-12-31T07:22:01.730Z,1.20
2017-12-31T07:24:29.206Z,1.83
2017-12-31T07:26:57.471Z,1.77
2017-12-31T07:29:24.943Z,1.93
2017-12-31T07:31:53.038Z,1.27
2017-12-31T07:34:20.519Z,1.20
2017-12-31T07:36:48.781Z,1.83
2017-12-31T07:39:16.259Z,1.80
2017-12-31T07:41:43.754Z,1.43
2017-12-31T07:44:12.007Z,1.70
2017-12-31T07:46:39.525Z,1.87
2017-12-31T07:49:07.006Z,2.30
2017-12-31T07:51:34.494Z,1.83
2017-12-31T07:54:02.758Z,1.47
2017-12-31T07:56:30.233Z,1.30
2017-12-31T07:58:57.728Z,1.87
2017-12-31T08:01:25.211Z,1.50
2017-12-31T08:03:52.710Z,2.10
2017-12-31T08:06:20.201Z,1.90
2017-12-31T08:08:47.699Z,1.93
2017-12-31T08:11:15.171Z,2.43
2017-12-31T08:13:42.680Z,2.13
2017-12-31T08:16:10.171Z,1.50
2017-12-31T08:18:38.447Z,2.60
2017-12-31T08:21:05.924Z,1.43
2017-12-31T08:23:34.187Z,1.50
2017-12-31T08:26:01.666Z,1.80
2017-12-31T08:28:29.167Z,2.00
2017-12-31T08:30:56.644Z,2.83
2017-12-31T08:33:24.999Z,2.07
2017-12-31T08:35:52.476Z,2.00
2017-12-31T08:38:19.977Z,1.87
2017-12-31T08:40:47.463Z,1.60
2017-12-31T08:43:14.959Z,1.60
2017-12-31T08:45:42.437Z,1.10
2017-12-31T08:48:09.944Z,2.60
2017-12-31T08:50:38.186Z,1.37
2017-12-31T08:53:05.670Z,1.60
2017-12-31T08:55:33.171Z,2.07
2017-12-31T08:58:01.427Z,2.13
2017-12-31T09:00:28.926Z,3.70
2017-12-31T09:02:57.169Z,3.20
2017-12-31T09:05:24.671Z,2.63
2017-12-31T09:07:52.922Z,3.10
2017-12-31T09:10:20.435Z,7.57
2017-12-31T09:12:48.683Z,8.33
2017-12-31T09:15:16.191Z,6.60
2017-12-31T09:17:44.443Z,6.10
2017-12-31T09:20:11.949Z,2.93
2017-12-31T09:22:40.228Z,2.13
2017-12-31T09:25:08.528Z,2.00
2017-12-31T09:27:36.792Z,2.30
2017-12-31T09:30:04.313Z,1.63
2017-12-31T09:32:31.820Z,2.60
2017-12-31T09:34:59.340Z,1.67
2017-12-31T09:37:26.832Z,1.70
2017-12-31T09:39:54.361Z,2.43
2017-12-31T09:42:22.630Z,2.57
2017-12-31T09:44:50.151Z,2.03
2017-12-31T09:47:17.627Z,1.60
2017-12-31T09:49:45.123Z,2.23
2017-12-31T09:52:12.602Z,1.73
2017-12-31T09:54:40.102Z,2.93
2017-12-31T09:57:08.347Z,2.00
2017-12-31T09:59:35.851Z,2.40
2017-12-31T10:02:03.331Z,1.83
2017-12-31T10:04:31.571Z,2.50
2017-12-31T10:06:59.071Z,2.83
2017-12-31T10:09:26.554Z,2.70
2017-12-31T10:11:54.049Z,3.50
2017-12-31T10:14:21.523Z,1.87
2017-12-31T10:16:49.027Z,2.30
2017-12-31T10:19:16.502Z,2.40
2017-12-31T10:21:44.039Z,3.17
2017-12-31T10:24:11.515Z,2.40
2017-12-31T10:26:39.014Z,2.03
2017-12-31T10:29:06.503Z,2.00
2017-12-31T10:31:34.021Z,1.70
2017-12-31T10:34:01.504Z,1.70
2017-12-31T10:36:29.016Z,1.83
2017-12-31T10:38:56.499Z,1.60
2017-12-31T10:41:24.766Z,1.63
2017-12-31T10:43:52.247Z,1.63
2017-12-31T10:46:19.750Z,1.70
2017-12-31T10:48:47.235Z,2.23
2017-12-31T10:51:14.719Z,1.93
2017-12-31T10:53:42.219Z,2.03
2017-12-31T10:56:09.701Z,1.97
2017-12-31T10:58:37.226Z,2.10
2017-12-31T11:01:04.702Z,2.03
2017-12-31T11:03:32.217Z,1.73
2017-12-31T11:05:59.701Z,1.90
2017-12-31T11:08:27.966Z,1.50
2017-12-31T11:10:55.460Z,2.93
2017-12-31T11:13:24.172Z,1.77
2017-12-31T11:15:51.651Z,1.37
2017-12-31T11:18:19.168Z,2.20
2017-12-31T11:20:46.655Z,1.50
2017-12-31T11:23:14.924Z,1.90
2017-12-31T11:25:42.415Z,3.37
2017-12-31T11:28:10.695Z,2.10
2017-12-31T11:30:38.181Z,1.87
2017-12-31T11:33:06.451Z,1.50
2017-12-31T11:35:33.939Z,1.40
2017-12-31T11:38:02.203Z,1.73
2017-12-31T11:40:29.692Z,3.43
2017-12-31T11:42:57.971Z,1.57
2017-12-31T11:45:25.452Z,2.10
2017-12-31T11:47:53.722Z,1.57
2017-12-31T11:50:21.203Z,1.63
2017-12-31T11:52:48.709Z,1.73
2017-12-31T11:55:16.191Z,2.30
2017-12-31T11:57:43.688Z,1.80
2017-12-31T12:00:11.163Z,1.30
2017-12-31T12:02:38.666Z,1.47
2017-12-31T12:05:06.917Z,1.57
2017-12-31T12:07:36.023Z,1.37
2017-12-31T12:10:03.504Z,1.50
2017-12-31T12:12:31.010Z,1.70
2017-12-31T12:14:58.496Z,1.60
2017-12-31T12:17:25.996Z,1.67
2017-12-31T12:19:53.479Z,1.70
2017-12-31T12:22:20.982Z,1.83
2017-12-31T12:24:48.473Z,1.87
2017-12-31T12:27:15.975Z,1.40
2017-12-31T12:29:43.463Z,1.97
2017-12-31T12:32:10.975Z,1.63
2017-12-31T12:34:38.456Z,2.23
2017-12-31T12:37:05.958Z,2.00
2017-12-31T12:39:33.444Z,1.50
2017-12-31T12:42:00.945Z,1.87
2017-12-31T12:44:28.431Z,1.60
2017-12-31T12:46:55.935Z,1.97
2017-12-31T12:49:23.419Z,1.63
2017-12-31T12:51:50.915Z,1.77
2017-12-31T12:54:19.199Z,1.50
2017-12-31T12:56:46.655Z,1.90
2017-12-31T12:59:14.159Z,1.67
2017-12-31T13:01:41.644Z,1.80
2017-12-31T13:04:09.147Z,1.67
2017-12-31T13:06:36.628Z,1.60
2017-12-31T13:09:04.144Z,1.70
2017-12-31T13:11:31.631Z,1.60
2017-12-31T13:13:59.127Z,1.33
2017-12-31T13:16:26.619Z,1.67
2017-12-31T13:18:54.127Z,1.70
2017-12-31T13:21:21.604Z,1.60
2017-12-31T13:23:49.107Z,1.70
2017-12-31T13:26:16.597Z,1.87
2017-12-31T13:28:44.103Z,1.53
2017-12-31T13:31:11.583Z,1.63
2017-12-31T13:33:39.083Z,1.23
2017-12-31T13:36:06.567Z,1.17
2017-12-31T13:38:34.067Z,1.90
2017-12-31T13:41:02.311Z,1.73
2017-12-31T13:43:29.825Z,1.60
2017-12-31T13:45:58.485Z,1.50
2017-12-31T13:48:25.987Z,1.10
2017-12-31T13:50:54.234Z,1.23
2017-12-31T13:53:21.745Z,1.33
2017-12-31T13:55:49.992Z,1.97
2017-12-31T13:58:17.519Z,1.80
2017-12-31T14:00:45.755Z,1.70
2017-12-31T14:03:13.254Z,3.30
2017-12-31T14:05:40.740Z,1.50
2017-12-31T14:08:09.009Z,1.30
2017-12-31T14:10:36.499Z,1.57
2017-12-31T14:13:04.763Z,1.57
2017-12-31T14:15:32.247Z,2.30
2017-12-31T14:18:00.511Z,1.90
2017-12-31T14:20:27.994Z,1.90
2017-12-31T14:22:55.492Z,1.30
2017-12-31T14:25:22.971Z,1.43
2017-12-31T14:27:50.474Z,1.73
2017-12-31T14:30:17.965Z,1.50
2017-12-31T14:32:45.466Z,1.47
2017-12-31T14:35:12.978Z,1.30
2017-12-31T14:37:40.499Z,1.93
2017-12-31T14:40:08.741Z,1.47
2017-12-31T14:42:36.234Z,1.90
2017-12-31T14:45:03.711Z,1.90
2017-12-31T14:47:31.212Z,1.60
2017-12-31T14:49:58.700Z,1.57
2017-12-31T14:52:26.183Z,2.13
2017-12-31T14:54:53.698Z,1.60
2017-12-31T14:57:21.175Z,1.77
2017-12-31T14:59:49.443Z,1.97
2017-12-31T15:02:16.931Z,1.73
2017-12-31T15:04:45.198Z,1.70
2017-12-31T15:07:12.679Z,2.00
2017-12-31T15:09:40.176Z,1.73
2017-12-31T15:12:07.663Z,2.17
2017-12-31T15:14:35.155Z,2.03
2017-12-31T15:17:02.643Z,1.50
2017-12-31T15:19:30.154Z,1.40
2017-12-31T15:21:57.626Z,1.77
2017-12-31T15:24:25.121Z,2.00
2017-12-31T15:26:52.605Z,1.63
2017-12-31T15:29:20.111Z,1.30
2017-12-31T15:31:47.595Z,1.93
2017-12-31T15:34:15.863Z,1.20
2017-12-31T15:36:43.347Z,2.23
2017-12-31T15:39:11.624Z,1.83
2017-12-31T15:41:39.106Z,1.27
2017-12-31T15:44:07.391Z,1.20
2017-12-31T15:46:35.635Z,1.73
2017-12-31T15:49:03.136Z,1.90
2017-12-31T15:51:30.615Z,3.07
2017-12-31T15:53:58.127Z,2.00
2017-12-31T15:56:25.620Z,2.90
2017-12-31T15:58:53.116Z,2.40
2017-12-31T16:01:20.594Z,1.50
2017-12-31T16:03:48.101Z,2.10
2017-12-31T16:06:15.587Z,1.50
2017-12-31T16:08:43.890Z,1.90
2017-12-31T16:11:11.351Z,2.13
2017-12-31T16:13:38.852Z,2.47
2017-12-31T16:16:06.331Z,3.00
2017-12-31T16:18:33.830Z,2.17
2017-12-31T16:21:01.331Z,2.17
2017-12-31T16:23:28.823Z,2.70
2017-12-31T16:25:56.307Z,1.97
2017-12-31T16:28:23.812Z,2.30
2017-12-31T16:30:51.290Z,2.17
2017-12-31T16:33:19.578Z,2.30
2017-12-31T16:35:47.060Z,2.40
2017-12-31T16:38:14.600Z,2.33
2017-12-31T16:40:42.115Z,2.47
2017-12-31T16:43:09.635Z,2.63
2017-12-31T16:45:37.895Z,1.97
2017-12-31T16:48:05.398Z,3.20
2017-12-31T16:50:33.635Z,1.70
2017-12-31T16:53:01.142Z,2.47
2017-12-31T16:55:28.642Z,2.50
2017-12-31T16:57:56.123Z,2.73
2017-12-31T17:00:23.625Z,3.40
2017-12-31T17:02:51.102Z,2.93
2017-12-31T17:05:18.600Z,2.93
2017-12-31T17:07:46.848Z,3.07
2017-12-31T17:10:14.341Z,3.30
2017-12-31T17:12:41.831Z,3.87
2017-12-31T17:15:10.099Z,2.87
2017-12-31T17:17:37.577Z,3.50
2017-12-31T17:20:05.857Z,3.07
2017-12-31T17:22:33.351Z,4.10
2017-12-31T17:25:01.619Z,3.23
2017-12-31T17:27:29.103Z,3.60
2017-12-31T17:29:57.375Z,3.80
2017-12-31T17:32:24.855Z,4.77
2017-12-31T17:34:53.114Z,6.10
2017-12-31T17:37:20.635Z,11.53
2017-12-31T17:39:48.143Z,4.70
2017-12-31T17:42:15.622Z,4.90
2017-12-31T17:44:43.123Z,2.23
2017-12-31T17:47:11.383Z,2.60
2017-12-31T17:49:38.880Z,2.90
2017-12-31T17:52:07.126Z,3.00
2017-12-31T17:54:34.627Z,4.50
2017-12-31T17:57:02.235Z,4.33
2017-12-31T17:59:29.755Z,3.90
2017-12-31T18:01:57.238Z,2.00
2017-12-31T18:04:24.731Z,6.10
2017-12-31T18:06:52.978Z,4.60
2017-12-31T18:09:20.475Z,4.60
2017-12-31T18:11:48.716Z,6.23
2017-12-31T18:14:16.216Z,10.77
2017-12-31T18:16:43.703Z,5.60
2017-12-31T18:19:11.972Z,3.53
2017-12-31T18:21:39.466Z,9.30
2017-12-31T18:24:07.739Z,2.60
2017-12-31T18:26:35.214Z,2.30
2017-12-31T18:29:03.479Z,2.47
2017-12-31T18:31:30.962Z,4.57
2017-12-31T18:33:58.463Z,2.97
2017-12-31T18:36:26.718Z,2.90
2017-12-31T18:38:54.995Z,3.27
2017-12-31T18:41:22.489Z,3.13
2017-12-31T18:43:50.772Z,4.00
2017-12-31T18:46:18.254Z,3.13
2017-12-31T18:48:46.525Z,3.73
2017-12-31T18:51:14.006Z,3.60
2017-12-31T18:53:42.287Z,5.93
2017-12-31T18:56:09.771Z,4.30
2017-12-31T18:58:38.034Z,5.23
2017-12-31T19:01:05.527Z,2.87
2017-12-31T19:03:33.770Z,4.87
2017-12-31T19:06:01.267Z,5.70
2017-12-31T19:08:28.734Z,3.90
2017-12-31T19:10:56.229Z,2.90
2017-12-31T19:13:25.315Z,3.60
2017-12-31T19:15:52.820Z,4.00
2017-12-31T19:18:20.303Z,4.40
2017-12-31T19:20:47.802Z,4.37
2017-12-31T19:23:15.291Z,4.00
2017-12-31T19:25:42.795Z,3.43
2017-12-31T19:28:11.039Z,2.60
2017-12-31T19:30:38.542Z,2.60
2017-12-31T19:33:06.799Z,2.80
2017-12-31T19:35:34.299Z,2.90
2017-12-31T19:38:01.831Z,4.07
2017-12-31T19:40:29.344Z,3.67
2017-12-31T19:42:57.592Z,2.67
2017-12-31T19:45:25.091Z,3.53
2017-12-31T19:47:53.342Z,4.10
2017-12-31T19:50:20.842Z,2.90
2017-12-31T19:52:48.319Z,6.30
2017-12-31T19:55:15.824Z,3.10
2017-12-31T19:57:43.356Z,6.37
2017-12-31T20:00:10.827Z,3.87
2017-12-31T20:02:38.314Z,3.20
2017-12-31T20:05:05.828Z,2.87
2017-12-31T20:07:33.305Z,2.20
2017-12-31T20:10:00.802Z,5.50
2017-12-31T20:12:28.283Z,2.03
2017-12-31T20:14:56.547Z,2.50
2017-12-31T20:17:24.036Z,2.57
2017-12-31T20:19:51.896Z,2.33
2017-12-31T20:22:19.375Z,2.53
2017-12-31T20:24:46.891Z,2.27
2017-12-31T20:27:14.362Z,2.37
2017-12-31T20:29:41.861Z,2.07
2017-12-31T20:32:09.347Z,1.80
2017-12-31T20:34:36.847Z,2.30
2017-12-31T20:37:05.095Z,2.27
2017-12-31T20:39:32.599Z,1.90
2017-12-31T20:42:00.867Z,2.50
2017-12-31T20:44:28.363Z,2.07
2017-12-31T20:46:56.610Z,2.00
2017-12-31T20:49:24.106Z,2.70
2017-12-31T20:51:51.594Z,2.10
2017-12-31T20:54:19.859Z,2.23
2017-12-31T20:56:47.335Z,2.23
2017-12-31T20:59:14.835Z,1.93
2017-12-31T21:01:42.307Z,2.50
2017-12-31T21:04:09.782Z,2.30
2017-12-31T21:06:37.274Z,2.77
2017-12-31T21:09:04.783Z,2.10
2017-12-31T21:11:32.293Z,1.87
2017-12-31T21:13:59.783Z,1.40
2017-12-31T21:16:27.291Z,2.63
2017-12-31T21:18:54.912Z,1.90
2017-12-31T21:21:22.412Z,2.20
2017-12-31T21:23:49.899Z,2.30
2017-12-31T21:26:17.399Z,2.90
2017-12-31T21:28:45.640Z,2.27
2017-12-31T21:31:13.149Z,2.07
2017-12-31T21:33:41.387Z,2.57
2017-12-31T21:36:08.891Z,5.07
2017-12-31T21:38:36.390Z,4.10
2017-12-31T21:41:03.899Z,3.33
2017-12-31T21:43:31.378Z,3.70
2017-12-31T21:45:58.962Z,3.60
2017-12-31T21:48:26.456Z,4.20
2017-12-31T21:50:54.727Z,2.20
2017-12-31T21:53:22.212Z,2.77
2017-12-31T21:55:50.480Z,3.47
2017-12-31T21:58:17.963Z,3.10
2017-12-31T22:00:45.454Z,4.50
2017-12-31T22:03:13.699Z,3.70
2017-12-31T22:05:41.203Z,2.90
2017-12-31T22:08:09.451Z,2.90
2017-12-31T22:10:36.955Z,3.60
2017-12-31T22:13:05.203Z,6.93
2017-12-31T22:15:32.706Z,9.90
2017-12-31T22:18:00.952Z,2.93
2017-12-31T22:20:28.447Z,2.37
2017-12-31T22:22:55.924Z,2.90
2017-12-31T22:25:23.422Z,3.07
2017-12-31T22:27:51.675Z,3.50
2017-12-31T22:30:19.187Z,3.27
2017-12-31T22:32:46.681Z,2.53
2017-12-31T22:35:14.175Z,2.87
2017-12-31T22:37:41.668Z,2.63
2017-12-31T22:40:09.167Z,2.67
2017-12-31T22:42:36.653Z,2.73
2017-12-31T22:45:04.151Z,2.70
2017-12-31T22:47:31.631Z,2.70
2017-12-31T22:49:59.130Z,2.60
2017-12-31T22:52:27.372Z,3.20
2017-12-31T22:54:54.871Z,4.10
2017-12-31T22:57:22.355Z,3.27
2017-12-31T22:59:50.623Z,4.40
2017-12-31T23:02:18.108Z,16.20
2017-12-31T23:04:45.624Z,85.57
2017-12-31T23:07:13.116Z,107.93
2017-12-31T23:09:40.599Z,67.30
2017-12-31T23:12:08.119Z,445.23
2017-12-31T23:14:35.611Z,197.20
2017-12-31T23:17:03.127Z,136.33
2017-12-31T23:19:31.395Z,73.90
2017-12-31T23:21:58.918Z,72.50
2017-12-31T23:24:26.419Z,135.87
2017-12-31T23:26:53.940Z,101.10
2017-12-31T23:29:22.190Z,35.90
2017-12-31T23:31:49.716Z,103.03
2017-12-31T23:34:17.198Z,20.10
2017-12-31T23:36:44.700Z,13.67
2017-12-31T23:39:12.188Z,31.83
2017-12-31T23:41:39.696Z,37.30
2017-12-31T23:44:07.179Z,20.07
2017-12-31T23:46:34.701Z,10.67
2017-12-31T23:49:02.195Z,7.57
2017-12-31T23:51:29.710Z,6.50
2017-12-31T23:53:57.187Z,4.17
2017-12-31T23:56:24.691Z,4.37
2017-12-31T23:58:52.170Z,5.60
